sensor_id;sensor_type;location;lat;lon;timestamp;pressure;altitude;pressure_sealevel;temperature;humidity
68077;BME280;54866;53.458;14.540;2022-12-07T00:00:19;100278.30;;;0.67;100.00
68077;BME280;54866;53.458;14.540;2022-12-07T00:02:49;100277.89;;;0.68;100.00
68077;BME280;54866;53.458;14.540;2022-12-07T00:05:19;100278.03;;;0.70;100.00
68077;BME280;54866;53.458;14.540;2022-12-07T00:07:49;100271.55;;;0.71;100.00
68077;BME280;54866;53.458;14.540;2022-12-07T00:10:18;100273.89;;;0.73;100.00
68077;BME280;54866;53.458;14.540;2022-12-07T00:12:48;100268.62;;;0.74;100.00
68077;BME280;54866;53.458;14.540;2022-12-07T00:15:18;100274.34;;;0.78;100.00
68077;BME280;54866;53.458;14.540;2022-12-07T00:17:48;100265.27;;;0.79;100.00
68077;BME280;54866;53.458;14.540;2022-12-07T00:20:17;100262.94;;;0.81;100.00
68077;BME280;54866;53.458;14.540;2022-12-07T00:22:47;100263.05;;;0.82;100.00
68077;BME280;54866;53.458;14.540;2022-12-07T00:25:17;100265.41;;;0.84;100.00
68077;BME280;54866;53.458;14.540;2022-12-07T00:27:47;100261.77;;;0.84;100.00
68077;BME280;54866;53.458;14.540;2022-12-07T00:30:17;100258.24;;;0.85;100.00
68077;BME280;54866;53.458;14.540;2022-12-07T00:32:47;100258.20;;;0.86;100.00
68077;BME280;54866;53.458;14.540;2022-12-07T00:35:17;100257.48;;;0.86;100.00
68077;BME280;54866;53.458;14.540;2022-12-07T00:37:47;100253.30;;;0.87;100.00
68077;BME280;54866;53.458;14.540;2022-12-07T00:40:17;100252.71;;;0.89;100.00
68077;BME280;54866;53.458;14.540;2022-12-07T00:42:46;100249.69;;;0.91;100.00
68077;BME280;54866;53.458;14.540;2022-12-07T00:45:16;100247.39;;;0.92;100.00
68077;BME280;54866;53.458;14.540;2022-12-07T00:47:46;100248.40;;;0.92;100.00
68077;BME280;54866;53.458;14.540;2022-12-07T00:50:16;100247.64;;;0.94;100.00
68077;BME280;54866;53.458;14.540;2022-12-07T00:52:46;100241.20;;;0.94;100.00
68077;BME280;54866;53.458;14.540;2022-12-07T00:55:16;100243.52;;;0.97;100.00
68077;BME280;54866;53.458;14.540;2022-12-07T00:57:45;100239.33;;;0.97;100.00
68077;BME280;54866;53.458;14.540;2022-12-07T01:00:18;100239.25;;;0.99;100.00
68077;BME280;54866;53.458;14.540;2022-12-07T01:02:47;100237.34;;;0.99;100.00
68077;BME280;54866;53.458;14.540;2022-12-07T01:05:17;100235.55;;;1.00;100.00
68077;BME280;54866;53.458;14.540;2022-12-07T01:07:47;100230.20;;;1.00;100.00
68077;BME280;54866;53.458;14.540;2022-12-07T01:10:18;100227.18;;;1.01;100.00
68077;BME280;54866;53.458;14.540;2022-12-07T01:12:47;100227.16;;;1.01;100.00
68077;BME280;54866;53.458;14.540;2022-12-07T01:15:18;100230.98;;;1.01;100.00
68077;BME280;54866;53.458;14.540;2022-12-07T01:17:47;100228.17;;;1.02;100.00
68077;BME280;54866;53.458;14.540;2022-12-07T01:20:17;100231.95;;;1.03;100.00
68077;BME280;54866;53.458;14.540;2022-12-07T01:22:47;100229.36;;;1.02;100.00
68077;BME280;54866;53.458;14.540;2022-12-07T01:25:17;100230.09;;;1.02;100.00
68077;BME280;54866;53.458;14.540;2022-12-07T01:27:47;100227.36;;;1.01;100.00
68077;BME280;54866;53.458;14.540;2022-12-07T01:30:17;100223.92;;;1.00;100.00
68077;BME280;54866;53.458;14.540;2022-12-07T01:32:46;100220.46;;;1.00;100.00
68077;BME280;54866;53.458;14.540;2022-12-07T01:35:16;100215.84;;;0.99;100.00
68077;BME280;54866;53.458;14.540;2022-12-07T01:37:46;100215.50;;;0.99;100.00
68077;BME280;54866;53.458;14.540;2022-12-07T01:40:16;100209.60;;;0.99;100.00
68077;BME280;54866;53.458;14.540;2022-12-07T01:42:45;100206.70;;;0.98;100.00
68077;BME280;54866;53.458;14.540;2022-12-07T01:45:39;100204.27;;;0.98;100.00
68077;BME280;54866;53.458;14.540;2022-12-07T01:48:12;100199.98;;;0.96;100.00
68077;BME280;54866;53.458;14.540;2022-12-07T01:50:44;100199.13;;;0.96;100.00
68077;BME280;54866;53.458;14.540;2022-12-07T01:53:18;100199.71;;;0.95;100.00
68077;BME280;54866;53.458;14.540;2022-12-07T01:55:52;100200.98;;;0.94;100.00
68077;BME280;54866;53.458;14.540;2022-12-07T01:58:22;100198.66;;;0.92;100.00
68077;BME280;54866;53.458;14.540;2022-12-07T02:00:53;100195.13;;;0.89;100.00
68077;BME280;54866;53.458;14.540;2022-12-07T02:03:25;100193.27;;;0.88;100.00
68077;BME280;54866;53.458;14.540;2022-12-07T02:05:55;100193.70;;;0.86;100.00
68077;BME280;54866;53.458;14.540;2022-12-07T02:08:25;100184.98;;;0.83;100.00
68077;BME280;54866;53.458;14.540;2022-12-07T02:10:55;100178.16;;;0.81;100.00
68077;BME280;54866;53.458;14.540;2022-12-07T02:13:27;100178.52;;;0.80;100.00
68077;BME280;54866;53.458;14.540;2022-12-07T02:16:13;100183.34;;;0.78;100.00
68077;BME280;54866;53.458;14.540;2022-12-07T02:18:58;100179.92;;;0.77;100.00
68077;BME280;54866;53.458;14.540;2022-12-07T02:21:37;100175.52;;;0.74;100.00
68077;BME280;54866;53.458;14.540;2022-12-07T02:24:19;100172.48;;;0.73;100.00
68077;BME280;54866;53.458;14.540;2022-12-07T02:30:10;100164.98;;;0.70;100.00
68077;BME280;54866;53.458;14.540;2022-12-07T02:32:47;100163.45;;;0.69;100.00
68077;BME280;54866;53.458;14.540;2022-12-07T02:35:22;100159.66;;;0.68;100.00
68077;BME280;54866;53.458;14.540;2022-12-07T02:38:01;100155.89;;;0.67;100.00
68077;BME280;54866;53.458;14.540;2022-12-07T02:40:36;100155.77;;;0.67;100.00
68077;BME280;54866;53.458;14.540;2022-12-07T02:43:10;100153.69;;;0.66;100.00
68077;BME280;54866;53.458;14.540;2022-12-07T02:45:42;100148.13;;;0.67;100.00
68077;BME280;54866;53.458;14.540;2022-12-07T02:48:16;100148.80;;;0.67;100.00
68077;BME280;54866;53.458;14.540;2022-12-07T02:50:49;100148.33;;;0.66;100.00
68077;BME280;54866;53.458;14.540;2022-12-07T02:53:33;100138.68;;;0.65;100.00
68077;BME280;54866;53.458;14.540;2022-12-07T02:56:08;100138.60;;;0.63;100.00
68077;BME280;54866;53.458;14.540;2022-12-07T02:58:54;100137.77;;;0.62;100.00
68077;BME280;54866;53.458;14.540;2022-12-07T03:01:30;100136.45;;;0.61;100.00
68077;BME280;54866;53.458;14.540;2022-12-07T03:04:15;100135.88;;;0.58;100.00
68077;BME280;54866;53.458;14.540;2022-12-07T03:06:56;100132.86;;;0.56;100.00
68077;BME280;54866;53.458;14.540;2022-12-07T03:09:33;100135.54;;;0.54;100.00
68077;BME280;54866;53.458;14.540;2022-12-07T03:12:08;100124.04;;;0.51;100.00
68077;BME280;54866;53.458;14.540;2022-12-07T03:14:44;100121.30;;;0.50;100.00
68077;BME280;54866;53.458;14.540;2022-12-07T03:17:20;100120.18;;;0.48;100.00
68077;BME280;54866;53.458;14.540;2022-12-07T03:19:55;100116.30;;;0.46;100.00
68077;BME280;54866;53.458;14.540;2022-12-07T03:22:30;100113.83;;;0.44;100.00
68077;BME280;54866;53.458;14.540;2022-12-07T03:25:04;100110.94;;;0.43;100.00
68077;BME280;54866;53.458;14.540;2022-12-07T03:27:37;100108.89;;;0.42;100.00
68077;BME280;54866;53.458;14.540;2022-12-07T03:30:12;100106.68;;;0.41;100.00
68077;BME280;54866;53.458;14.540;2022-12-07T03:32:47;100105.77;;;0.39;100.00
68077;BME280;54866;53.458;14.540;2022-12-07T03:35:22;100102.20;;;0.37;100.00
68077;BME280;54866;53.458;14.540;2022-12-07T03:37:57;100096.55;;;0.36;100.00
68077;BME280;54866;53.458;14.540;2022-12-07T03:40:32;100092.80;;;0.34;100.00
68077;BME280;54866;53.458;14.540;2022-12-07T03:43:04;100091.20;;;0.30;100.00
68077;BME280;54866;53.458;14.540;2022-12-07T03:45:40;100081.75;;;0.29;100.00
68077;BME280;54866;53.458;14.540;2022-12-07T03:48:19;100081.14;;;0.27;100.00
68077;BME280;54866;53.458;14.540;2022-12-07T03:50:55;100075.35;;;0.25;100.00
68077;BME280;54866;53.458;14.540;2022-12-07T03:53:35;100077.02;;;0.23;100.00
68077;BME280;54866;53.458;14.540;2022-12-07T03:56:06;100070.45;;;0.22;100.00
68077;BME280;54866;53.458;14.540;2022-12-07T03:58:36;100065.53;;;0.20;100.00
68077;BME280;54866;53.458;14.540;2022-12-07T04:01:06;100071.10;;;0.20;100.00
68077;BME280;54866;53.458;14.540;2022-12-07T04:03:36;100065.63;;;0.18;100.00
68077;BME280;54866;53.458;14.540;2022-12-07T04:06:07;100060.06;;;0.14;100.00
68077;BME280;54866;53.458;14.540;2022-12-07T04:08:36;100058.44;;;0.12;100.00
68077;BME280;54866;53.458;14.540;2022-12-07T04:11:06;100055.13;;;0.09;100.00
68077;BME280;54866;53.458;14.540;2022-12-07T04:13:36;100054.65;;;0.05;100.00
68077;BME280;54866;53.458;14.540;2022-12-07T04:16:20;100054.29;;;0.01;100.00
68077;BME280;54866;53.458;14.540;2022-12-07T04:18:50;100050.64;;;-0.03;100.00
68077;BME280;54866;53.458;14.540;2022-12-07T04:21:20;100049.77;;;-0.07;100.00
68077;BME280;54866;53.458;14.540;2022-12-07T04:23:49;100049.20;;;-0.09;100.00
68077;BME280;54866;53.458;14.540;2022-12-07T04:26:19;100047.80;;;-0.13;100.00
68077;BME280;54866;53.458;14.540;2022-12-07T04:28:49;100045.05;;;-0.17;100.00
68077;BME280;54866;53.458;14.540;2022-12-07T04:31:19;100037.42;;;-0.21;100.00
68077;BME280;54866;53.458;14.540;2022-12-07T04:33:49;100035.90;;;-0.25;100.00
68077;BME280;54866;53.458;14.540;2022-12-07T04:36:18;100029.79;;;-0.28;100.00
68077;BME280;54866;53.458;14.540;2022-12-07T04:38:49;100026.38;;;-0.29;100.00
68077;BME280;54866;53.458;14.540;2022-12-07T04:41:19;100025.56;;;-0.31;100.00
68077;BME280;54866;53.458;14.540;2022-12-07T04:43:55;100021.23;;;-0.30;100.00
68077;BME280;54866;53.458;14.540;2022-12-07T04:46:27;100020.27;;;-0.32;100.00
68077;BME280;54866;53.458;14.540;2022-12-07T04:48:57;100020.95;;;-0.32;100.00
68077;BME280;54866;53.458;14.540;2022-12-07T04:51:28;100022.36;;;-0.33;100.00
68077;BME280;54866;53.458;14.540;2022-12-07T04:53:58;100015.48;;;-0.33;100.00
68077;BME280;54866;53.458;14.540;2022-12-07T04:56:28;100008.45;;;-0.35;100.00
68077;BME280;54866;53.458;14.540;2022-12-07T04:58:58;100011.69;;;-0.34;100.00
68077;BME280;54866;53.458;14.540;2022-12-07T05:01:28;100015.64;;;-0.33;100.00
68077;BME280;54866;53.458;14.540;2022-12-07T05:03:58;100016.05;;;-0.31;100.00
68077;BME280;54866;53.458;14.540;2022-12-07T05:06:27;100013.56;;;-0.29;100.00
68077;BME280;54866;53.458;14.540;2022-12-07T05:08:57;100009.05;;;-0.29;100.00
68077;BME280;54866;53.458;14.540;2022-12-07T05:11:27;100005.25;;;-0.29;100.00
68077;BME280;54866;53.458;14.540;2022-12-07T05:14:12;100003.68;;;-0.33;100.00
68077;BME280;54866;53.458;14.540;2022-12-07T05:16:43;100000.26;;;-0.34;100.00
68077;BME280;54866;53.458;14.540;2022-12-07T05:19:13;99992.55;;;-0.36;100.00
68077;BME280;54866;53.458;14.540;2022-12-07T05:21:43;99989.52;;;-0.38;100.00
68077;BME280;54866;53.458;14.540;2022-12-07T05:24:15;99987.69;;;-0.39;100.00
68077;BME280;54866;53.458;14.540;2022-12-07T05:26:45;99985.35;;;-0.41;100.00
68077;BME280;54866;53.458;14.540;2022-12-07T05:29:16;99982.68;;;-0.43;100.00
68077;BME280;54866;53.458;14.540;2022-12-07T05:31:46;99979.64;;;-0.45;100.00
68077;BME280;54866;53.458;14.540;2022-12-07T05:34:15;99979.34;;;-0.46;100.00
68077;BME280;54866;53.458;14.540;2022-12-07T05:36:45;99976.83;;;-0.47;100.00
68077;BME280;54866;53.458;14.540;2022-12-07T05:39:15;99974.05;;;-0.47;100.00
68077;BME280;54866;53.458;14.540;2022-12-07T05:41:45;99976.49;;;-0.48;100.00
68077;BME280;54866;53.458;14.540;2022-12-07T05:44:32;99972.08;;;-0.50;100.00
68077;BME280;54866;53.458;14.540;2022-12-07T05:47:02;99970.27;;;-0.52;100.00
68077;BME280;54866;53.458;14.540;2022-12-07T05:49:32;99965.93;;;-0.51;100.00
68077;BME280;54866;53.458;14.540;2022-12-07T05:52:02;99962.66;;;-0.52;100.00
68077;BME280;54866;53.458;14.540;2022-12-07T05:54:32;99962.27;;;-0.51;100.00
68077;BME280;54866;53.458;14.540;2022-12-07T05:57:02;99961.34;;;-0.49;100.00
68077;BME280;54866;53.458;14.540;2022-12-07T05:59:32;99952.28;;;-0.48;100.00
68077;BME280;54866;53.458;14.540;2022-12-07T06:02:03;99953.30;;;-0.48;100.00
68077;BME280;54866;53.458;14.540;2022-12-07T06:04:37;99953.08;;;-0.47;100.00
68077;BME280;54866;53.458;14.540;2022-12-07T06:07:08;99953.23;;;-0.46;100.00
68077;BME280;54866;53.458;14.540;2022-12-07T06:09:38;99947.85;;;-0.46;100.00
68077;BME280;54866;53.458;14.540;2022-12-07T06:12:10;99944.20;;;-0.45;100.00
68077;BME280;54866;53.458;14.540;2022-12-07T06:14:57;99940.98;;;-0.47;100.00
68077;BME280;54866;53.458;14.540;2022-12-07T06:17:27;99941.02;;;-0.48;100.00
68077;BME280;54866;53.458;14.540;2022-12-07T06:19:56;99935.04;;;-0.49;100.00
68077;BME280;54866;53.458;14.540;2022-12-07T06:22:26;99934.47;;;-0.48;100.00
68077;BME280;54866;53.458;14.540;2022-12-07T06:24:56;99935.00;;;-0.49;100.00
68077;BME280;54866;53.458;14.540;2022-12-07T06:27:26;99928.26;;;-0.48;100.00
68077;BME280;54866;53.458;14.540;2022-12-07T06:29:56;99923.73;;;-0.48;100.00
68077;BME280;54866;53.458;14.540;2022-12-07T06:32:26;99919.91;;;-0.48;100.00
68077;BME280;54866;53.458;14.540;2022-12-07T06:34:55;99921.10;;;-0.48;100.00
68077;BME280;54866;53.458;14.540;2022-12-07T06:37:25;99914.46;;;-0.49;100.00
68077;BME280;54866;53.458;14.540;2022-12-07T06:39:55;99922.45;;;-0.50;100.00
68077;BME280;54866;53.458;14.540;2022-12-07T06:42:25;99919.42;;;-0.52;100.00
68077;BME280;54866;53.458;14.540;2022-12-07T06:44:54;99919.70;;;-0.55;100.00
68077;BME280;54866;53.458;14.540;2022-12-07T06:47:24;99912.89;;;-0.57;100.00
68077;BME280;54866;53.458;14.540;2022-12-07T06:49:54;99914.81;;;-0.58;100.00
68077;BME280;54866;53.458;14.540;2022-12-07T06:52:24;99913.20;;;-0.60;100.00
68077;BME280;54866;53.458;14.540;2022-12-07T06:54:53;99914.58;;;-0.60;100.00
68077;BME280;54866;53.458;14.540;2022-12-07T06:57:23;99914.41;;;-0.60;100.00
68077;BME280;54866;53.458;14.540;2022-12-07T06:59:53;99912.48;;;-0.59;100.00
68077;BME280;54866;53.458;14.540;2022-12-07T07:02:22;99915.45;;;-0.60;100.00
68077;BME280;54866;53.458;14.540;2022-12-07T07:04:52;99911.81;;;-0.60;100.00
68077;BME280;54866;53.458;14.540;2022-12-07T07:07:22;99910.63;;;-0.61;100.00
68077;BME280;54866;53.458;14.540;2022-12-07T07:09:52;99909.86;;;-0.59;100.00
68077;BME280;54866;53.458;14.540;2022-12-07T07:12:21;99906.33;;;-0.57;100.00
68077;BME280;54866;53.458;14.540;2022-12-07T07:14:51;99909.38;;;-0.56;100.00
68077;BME280;54866;53.458;14.540;2022-12-07T07:17:21;99909.11;;;-0.54;100.00
68077;BME280;54866;53.458;14.540;2022-12-07T07:19:51;99906.17;;;-0.54;100.00
68077;BME280;54866;53.458;14.540;2022-12-07T07:22:20;99904.11;;;-0.54;100.00
68077;BME280;54866;53.458;14.540;2022-12-07T07:24:50;99900.45;;;-0.54;100.00
68077;BME280;54866;53.458;14.540;2022-12-07T07:27:20;99901.16;;;-0.54;100.00
68077;BME280;54866;53.458;14.540;2022-12-07T07:29:50;99894.38;;;-0.54;100.00
68077;BME280;54866;53.458;14.540;2022-12-07T07:32:19;99889.81;;;-0.52;100.00
68077;BME280;54866;53.458;14.540;2022-12-07T07:34:50;99887.65;;;-0.50;100.00
68077;BME280;54866;53.458;14.540;2022-12-07T07:37:20;99879.91;;;-0.47;100.00
68077;BME280;54866;53.458;14.540;2022-12-07T07:39:49;99882.06;;;-0.45;100.00
68077;BME280;54866;53.458;14.540;2022-12-07T07:42:19;99884.09;;;-0.44;100.00
68077;BME280;54866;53.458;14.540;2022-12-07T07:44:49;99890.55;;;-0.42;100.00
68077;BME280;54866;53.458;14.540;2022-12-07T07:47:19;99892.87;;;-0.40;100.00
68077;BME280;54866;53.458;14.540;2022-12-07T07:49:49;99892.23;;;-0.37;100.00
68077;BME280;54866;53.458;14.540;2022-12-07T07:52:19;99884.92;;;-0.36;100.00
68077;BME280;54866;53.458;14.540;2022-12-07T07:54:49;99888.33;;;-0.35;100.00
68077;BME280;54866;53.458;14.540;2022-12-07T07:57:18;99893.51;;;-0.34;100.00
68077;BME280;54866;53.458;14.540;2022-12-07T07:59:48;99892.76;;;-0.33;100.00
68077;BME280;54866;53.458;14.540;2022-12-07T08:02:21;99896.64;;;-0.31;100.00
68077;BME280;54866;53.458;14.540;2022-12-07T08:04:51;99897.44;;;-0.29;100.00
68077;BME280;54866;53.458;14.540;2022-12-07T08:07:21;99893.56;;;-0.28;100.00
68077;BME280;54866;53.458;14.540;2022-12-07T08:09:50;99892.02;;;-0.28;100.00
68077;BME280;54866;53.458;14.540;2022-12-07T08:12:20;99889.91;;;-0.27;100.00
68077;BME280;54866;53.458;14.540;2022-12-07T08:14:50;99890.68;;;-0.26;100.00
68077;BME280;54866;53.458;14.540;2022-12-07T08:17:20;99888.23;;;-0.25;100.00
68077;BME280;54866;53.458;14.540;2022-12-07T08:19:49;99890.92;;;-0.24;100.00
68077;BME280;54866;53.458;14.540;2022-12-07T08:22:19;99887.23;;;-0.22;100.00
68077;BME280;54866;53.458;14.540;2022-12-07T08:24:49;99891.27;;;-0.20;100.00
68077;BME280;54866;53.458;14.540;2022-12-07T08:27:19;99895.23;;;-0.19;100.00
68077;BME280;54866;53.458;14.540;2022-12-07T08:29:49;99888.91;;;-0.18;100.00
68077;BME280;54866;53.458;14.540;2022-12-07T08:32:19;99886.59;;;-0.16;100.00
68077;BME280;54866;53.458;14.540;2022-12-07T08:34:50;99889.81;;;-0.14;100.00
68077;BME280;54866;53.458;14.540;2022-12-07T08:37:21;99887.49;;;-0.13;100.00
68077;BME280;54866;53.458;14.540;2022-12-07T08:39:51;99890.34;;;-0.11;100.00
68077;BME280;54866;53.458;14.540;2022-12-07T08:42:20;99887.01;;;-0.10;100.00
68077;BME280;54866;53.458;14.540;2022-12-07T08:44:55;99886.04;;;-0.08;100.00
68077;BME280;54866;53.458;14.540;2022-12-07T08:47:26;99881.41;;;-0.06;100.00
68077;BME280;54866;53.458;14.540;2022-12-07T08:49:56;99874.01;;;-0.03;100.00
68077;BME280;54866;53.458;14.540;2022-12-07T08:52:31;99866.15;;;-0.01;100.00
68077;BME280;54866;53.458;14.540;2022-12-07T08:55:03;99870.31;;;0.03;100.00
68077;BME280;54866;53.458;14.540;2022-12-07T08:57:33;99873.48;;;0.05;100.00
68077;BME280;54866;53.458;14.540;2022-12-07T09:00:06;99877.10;;;0.09;100.00
68077;BME280;54866;53.458;14.540;2022-12-07T09:02:37;99872.81;;;0.15;100.00
68077;BME280;54866;53.458;14.540;2022-12-07T09:05:07;99870.79;;;0.21;100.00
68077;BME280;54866;53.458;14.540;2022-12-07T09:07:38;99867.61;;;0.29;100.00
68077;BME280;54866;53.458;14.540;2022-12-07T09:10:09;99861.86;;;0.33;100.00
68077;BME280;54866;53.458;14.540;2022-12-07T09:12:39;99860.94;;;0.31;100.00
68077;BME280;54866;53.458;14.540;2022-12-07T09:15:10;99858.55;;;0.30;100.00
68077;BME280;54866;53.458;14.540;2022-12-07T09:17:40;99858.33;;;0.27;100.00
68077;BME280;54866;53.458;14.540;2022-12-07T09:20:11;99853.04;;;0.29;100.00
68077;BME280;54866;53.458;14.540;2022-12-07T09:22:41;99853.97;;;0.32;100.00
68077;BME280;54866;53.458;14.540;2022-12-07T09:25:10;99860.04;;;0.35;100.00
68077;BME280;54866;53.458;14.540;2022-12-07T09:27:40;99861.02;;;0.40;100.00
68077;BME280;54866;53.458;14.540;2022-12-07T09:30:11;99853.40;;;0.43;100.00
68077;BME280;54866;53.458;14.540;2022-12-07T09:32:40;99855.06;;;0.55;100.00
68077;BME280;54866;53.458;14.540;2022-12-07T09:35:12;99858.50;;;0.59;100.00
68077;BME280;54866;53.458;14.540;2022-12-07T09:37:42;99860.20;;;0.59;100.00
68077;BME280;54866;53.458;14.540;2022-12-07T09:40:12;99859.86;;;0.59;100.00
68077;BME280;54866;53.458;14.540;2022-12-07T09:42:44;99853.35;;;0.61;100.00
68077;BME280;54866;53.458;14.540;2022-12-07T09:45:18;99855.80;;;0.64;100.00
68077;BME280;54866;53.458;14.540;2022-12-07T09:47:49;99858.90;;;0.68;100.00
68077;BME280;54866;53.458;14.540;2022-12-07T09:50:22;99859.78;;;0.71;100.00
68077;BME280;54866;53.458;14.540;2022-12-07T09:52:55;99855.66;;;0.71;100.00
68077;BME280;54866;53.458;14.540;2022-12-07T09:55:28;99857.77;;;0.70;100.00
68077;BME280;54866;53.458;14.540;2022-12-07T09:57:58;99849.16;;;0.65;100.00
68077;BME280;54866;53.458;14.540;2022-12-07T10:00:29;99855.63;;;0.65;100.00
68077;BME280;54866;53.458;14.540;2022-12-07T10:03:00;99853.67;;;0.62;100.00
68077;BME280;54866;53.458;14.540;2022-12-07T10:05:34;99861.90;;;0.64;100.00
68077;BME280;54866;53.458;14.540;2022-12-07T10:08:07;99863.48;;;0.64;100.00
68077;BME280;54866;53.458;14.540;2022-12-07T10:10:38;99864.55;;;0.63;100.00
68077;BME280;54866;53.458;14.540;2022-12-07T10:13:09;99864.83;;;0.67;100.00
68077;BME280;54866;53.458;14.540;2022-12-07T10:15:49;99859.02;;;0.73;100.00
68077;BME280;54866;53.458;14.540;2022-12-07T10:18:33;99863.14;;;0.83;100.00
68077;BME280;54866;53.458;14.540;2022-12-07T10:21:13;99866.54;;;0.92;100.00
68077;BME280;54866;53.458;14.540;2022-12-07T10:24:00;99868.90;;;1.00;100.00
68077;BME280;54866;53.458;14.540;2022-12-07T10:26:33;99871.25;;;1.14;100.00
68077;BME280;54866;53.458;14.540;2022-12-07T10:29:15;99870.56;;;1.28;100.00
68077;BME280;54866;53.458;14.540;2022-12-07T10:31:48;99867.27;;;1.37;100.00
68077;BME280;54866;53.458;14.540;2022-12-07T10:34:24;99864.59;;;1.45;100.00
68077;BME280;54866;53.458;14.540;2022-12-07T10:37:06;99862.88;;;1.51;100.00
68077;BME280;54866;53.458;14.540;2022-12-07T10:39:44;99868.17;;;1.49;100.00
68077;BME280;54866;53.458;14.540;2022-12-07T10:42:20;99870.00;;;1.38;100.00
68077;BME280;54866;53.458;14.540;2022-12-07T10:47:38;99871.08;;;1.17;100.00
68077;BME280;54866;53.458;14.540;2022-12-07T10:50:22;99872.80;;;1.11;100.00
68077;BME280;54866;53.458;14.540;2022-12-07T10:53:12;99864.81;;;1.05;100.00
68077;BME280;54866;53.458;14.540;2022-12-07T10:56:00;99862.96;;;1.00;100.00
68077;BME280;54866;53.458;14.540;2022-12-07T10:58:50;99862.89;;;0.95;100.00
68077;BME280;54866;53.458;14.540;2022-12-07T11:01:28;99864.50;;;0.94;100.00
68077;BME280;54866;53.458;14.540;2022-12-07T11:04:15;99858.69;;;0.93;100.00
68077;BME280;54866;53.458;14.540;2022-12-07T11:06:54;99861.91;;;0.90;100.00
68077;BME280;54866;53.458;14.540;2022-12-07T11:09:47;99861.14;;;0.92;100.00
68077;BME280;54866;53.458;14.540;2022-12-07T11:12:22;99858.83;;;0.94;100.00
68077;BME280;54866;53.458;14.540;2022-12-07T11:15:00;99857.35;;;0.95;100.00
68077;BME280;54866;53.458;14.540;2022-12-07T11:17:40;99856.69;;;1.01;100.00
68077;BME280;54866;53.458;14.540;2022-12-07T11:20:24;99854.54;;;1.09;100.00
68077;BME280;54866;53.458;14.540;2022-12-07T11:23:04;99844.82;;;1.22;100.00
68077;BME280;54866;53.458;14.540;2022-12-07T11:25:46;99838.71;;;1.45;100.00
68077;BME280;54866;53.458;14.540;2022-12-07T11:28:28;99842.50;;;1.74;100.00
68077;BME280;54866;53.458;14.540;2022-12-07T11:31:10;99843.45;;;1.91;100.00
68077;BME280;54866;53.458;14.540;2022-12-07T11:33:45;99842.42;;;1.97;100.00
68077;BME280;54866;53.458;14.540;2022-12-07T11:36:35;99838.30;;;1.99;100.00
68077;BME280;54866;53.458;14.540;2022-12-07T11:39:14;99837.71;;;2.06;100.00
68077;BME280;54866;53.458;14.540;2022-12-07T11:41:47;99834.08;;;2.36;100.00
68077;BME280;54866;53.458;14.540;2022-12-07T11:44:26;99830.05;;;2.63;97.36
68077;BME280;54866;53.458;14.540;2022-12-07T11:47:05;99830.40;;;2.84;96.64
68077;BME280;54866;53.458;14.540;2022-12-07T11:49:43;99821.13;;;2.82;95.20
68077;BME280;54866;53.458;14.540;2022-12-07T11:52:20;99822.48;;;2.71;94.49
68077;BME280;54866;53.458;14.540;2022-12-07T11:54:53;99820.70;;;2.60;94.92
68077;BME280;54866;53.458;14.540;2022-12-07T11:57:27;99822.65;;;2.48;94.99
68077;BME280;54866;53.458;14.540;2022-12-07T12:00:03;99821.13;;;2.32;94.99
68077;BME280;54866;53.458;14.540;2022-12-07T12:02:41;99826.61;;;2.19;95.42
68077;BME280;54866;53.458;14.540;2022-12-07T12:05:18;99823.39;;;2.08;96.39
68077;BME280;54866;53.458;14.540;2022-12-07T12:07:52;99818.34;;;1.96;96.44
68077;BME280;54866;53.458;14.540;2022-12-07T12:10:31;99822.58;;;1.92;96.07
68077;BME280;54866;53.458;14.540;2022-12-07T12:13:17;99826.64;;;1.84;96.35
68077;BME280;54866;53.458;14.540;2022-12-07T12:16:08;99827.73;;;1.74;96.54
68077;BME280;54866;53.458;14.540;2022-12-07T12:21:32;99822.98;;;1.63;97.17
68077;BME280;54866;53.458;14.540;2022-12-07T12:24:09;99822.23;;;1.67;97.07
68077;BME280;54866;53.458;14.540;2022-12-07T12:26:40;99814.45;;;1.76;97.07
68077;BME280;54866;53.458;14.540;2022-12-07T12:29:26;99808.30;;;1.80;96.07
68077;BME280;54866;53.458;14.540;2022-12-07T12:32:18;99809.79;;;1.88;95.47
68077;BME280;54866;53.458;14.540;2022-12-07T12:37:48;99804.28;;;1.99;95.40
68077;BME280;54866;53.458;14.540;2022-12-07T12:40:43;99808.65;;;2.19;95.37
68077;BME280;54866;53.458;14.540;2022-12-07T12:43:47;99800.30;;;2.72;91.63
68077;BME280;54866;53.458;14.540;2022-12-07T12:46:37;99796.20;;;3.72;88.44
68077;BME280;54866;53.458;14.540;2022-12-07T12:49:34;99792.81;;;4.39;85.24
68077;BME280;54866;53.458;14.540;2022-12-07T12:55:23;99790.78;;;5.56;75.54
68077;BME280;54866;53.458;14.540;2022-12-07T12:58:31;99788.27;;;5.86;73.94
68077;BME280;54866;53.458;14.540;2022-12-07T13:01:38;99785.16;;;5.52;73.46
68077;BME280;54866;53.458;14.540;2022-12-07T13:07:54;99795.48;;;4.66;75.97
68077;BME280;54866;53.458;14.540;2022-12-07T13:10:35;99788.59;;;4.27;77.20
68077;BME280;54866;53.458;14.540;2022-12-07T13:13:33;99795.32;;;4.12;78.40
68077;BME280;54866;53.458;14.540;2022-12-07T13:16:40;99795.27;;;3.89;79.36
68077;BME280;54866;53.458;14.540;2022-12-07T13:22:42;99795.51;;;3.25;81.18
68077;BME280;54866;53.458;14.540;2022-12-07T13:25:19;99801.00;;;2.98;82.57
68077;BME280;54866;53.458;14.540;2022-12-07T13:27:54;99805.65;;;2.73;82.86
68077;BME280;54866;53.458;14.540;2022-12-07T13:30:25;99804.25;;;2.53;84.06
68077;BME280;54866;53.458;14.540;2022-12-07T13:32:57;99797.56;;;2.34;83.82
68077;BME280;54866;53.458;14.540;2022-12-07T13:35:34;99794.20;;;2.17;83.42
68077;BME280;54866;53.458;14.540;2022-12-07T13:38:15;99791.80;;;2.01;81.93